createdAt,value
2022-12-20T00:00:58.040Z,99752.50
2022-12-20T00:03:29.592Z,99749.23
2022-12-20T00:06:01.131Z,99745.83
2022-12-20T00:08:34.915Z,99743.36
2022-12-20T00:11:08.452Z,99741.76
2022-12-20T00:13:39.055Z,99744.21
2022-12-20T00:16:13.883Z,99741.81
2022-12-20T00:18:46.132Z,99742.95
2022-12-20T00:21:17.856Z,99730.34
2022-12-20T00:23:49.415Z,99728.59
2022-12-20T00:26:23.185Z,99731.81
2022-12-20T00:28:54.687Z,99728.92
2022-12-20T00:31:28.107Z,99731.61
2022-12-20T00:34:01.248Z,99724.06
2022-12-20T00:36:34.441Z,99719.09
2022-12-20T00:39:06.645Z,99715.92
2022-12-20T00:41:38.196Z,99717.34
2022-12-20T00:44:09.738Z,99718.55
2022-12-20T00:46:41.268Z,99719.25
2022-12-20T00:49:13.035Z,99717.79
2022-12-20T00:51:44.584Z,99718.41
2022-12-20T00:54:16.074Z,99716.46
2022-12-20T00:56:47.628Z,99712.73
2022-12-20T00:59:19.708Z,99705.40
2022-12-20T01:01:51.593Z,99706.14
2022-12-20T01:04:23.622Z,99697.84
2022-12-20T01:06:55.154Z,99691.25
2022-12-20T01:09:26.647Z,99683.58
2022-12-20T01:11:58.221Z,99694.64
2022-12-20T01:14:29.733Z,99707.23
2022-12-20T01:17:01.331Z,99727.54
2022-12-20T01:19:33.000Z,99730.73
2022-12-20T01:22:04.595Z,99715.27
2022-12-20T01:24:36.139Z,99703.09
2022-12-20T01:27:15.673Z,99709.81
2022-12-20T01:29:47.885Z,99712.40
2022-12-20T01:32:19.436Z,99713.13
2022-12-20T01:34:51.139Z,99704.36
2022-12-20T01:37:22.973Z,99704.04
2022-12-20T01:39:54.644Z,99710.31
2022-12-20T01:42:26.134Z,99710.34
2022-12-20T01:45:02.453Z,99701.48
2022-12-20T01:47:38.739Z,99694.89
2022-12-20T01:50:12.234Z,99688.89
2022-12-20T01:52:44.160Z,99678.48
2022-12-20T01:55:21.158Z,99674.56
2022-12-20T01:57:58.389Z,99675.00
2022-12-20T02:00:30.593Z,99668.59
2022-12-20T02:03:08.650Z,99672.73
2022-12-20T02:05:43.296Z,99670.18
2022-12-20T02:08:17.245Z,99672.61
2022-12-20T02:11:01.998Z,99669.27
2022-12-20T02:13:46.787Z,99674.86
2022-12-20T02:16:27.520Z,99678.36
2022-12-20T02:19:08.089Z,99675.88
2022-12-20T02:21:42.047Z,99679.58
2022-12-20T02:24:47.954Z,99667.72
2022-12-20T02:27:44.314Z,99673.83
2022-12-20T02:30:18.810Z,99666.74
2022-12-20T02:33:00.298Z,99655.52
2022-12-20T02:35:34.926Z,99644.83
2022-12-20T02:38:20.964Z,99640.46
2022-12-20T02:40:57.304Z,99640.63
2022-12-20T02:43:50.471Z,99648.20
2022-12-20T02:46:25.004Z,99654.60
2022-12-20T02:49:02.269Z,99656.14
2022-12-20T02:51:35.810Z,99655.84
2022-12-20T02:54:06.275Z,99659.86
2022-12-20T02:56:43.913Z,99648.70
2022-12-20T02:59:21.322Z,99642.24
2022-12-20T03:01:54.869Z,99640.84
2022-12-20T03:04:29.197Z,99641.70
2022-12-20T03:07:03.060Z,99645.08
2022-12-20T03:09:37.634Z,99639.29
2022-12-20T03:12:11.700Z,99627.67
2022-12-20T03:14:43.557Z,99633.46
2022-12-20T03:17:15.165Z,99647.47
2022-12-20T03:19:46.825Z,99633.33
2022-12-20T03:22:18.403Z,99634.65
2022-12-20T03:24:50.148Z,99648.92
2022-12-20T03:27:22.349Z,99648.67
2022-12-20T03:29:53.860Z,99635.80
2022-12-20T03:32:25.656Z,99627.16
2022-12-20T03:34:57.333Z,99624.10
2022-12-20T03:37:29.075Z,99617.46
2022-12-20T03:40:00.732Z,99617.10
2022-12-20T03:42:32.460Z,99617.91
2022-12-20T03:45:04.299Z,99616.84
2022-12-20T03:47:36.299Z,99617.89
2022-12-20T03:50:10.119Z,99617.78
2022-12-20T03:52:41.784Z,99618.29
2022-12-20T03:55:13.902Z,99624.95
2022-12-20T03:57:45.489Z,99623.27
2022-12-20T04:00:20.580Z,99617.16
2022-12-20T04:02:52.498Z,99618.02
2022-12-20T04:05:24.443Z,99620.45
2022-12-20T04:07:55.941Z,99629.35
2022-12-20T04:10:27.431Z,99631.30
2022-12-20T04:12:59.054Z,99625.50
2022-12-20T04:15:30.689Z,99618.99
2022-12-20T04:18:02.431Z,99617.02
2022-12-20T04:20:34.066Z,99619.48
2022-12-20T04:23:05.575Z,99619.55
2022-12-20T04:25:37.205Z,99617.84
2022-12-20T04:28:09.170Z,99615.33
2022-12-20T04:30:40.714Z,99625.75
2022-12-20T04:33:12.380Z,99632.84
2022-12-20T04:35:44.022Z,99630.02
2022-12-20T04:38:15.624Z,99639.45
2022-12-20T04:40:49.134Z,99636.35
2022-12-20T04:43:21.326Z,99637.83
2022-12-20T04:45:56.226Z,99634.08
2022-12-20T04:48:59.919Z,99630.02
2022-12-20T04:51:22.013Z,99626.23
2022-12-20T04:53:53.659Z,99629.27
2022-12-20T04:56:27.678Z,99625.39
2022-12-20T04:59:00.412Z,99623.31
2022-12-20T05:01:32.112Z,99621.88
2022-12-20T05:04:03.981Z,99618.86
2022-12-20T05:06:35.585Z,99619.74
2022-12-20T05:09:07.224Z,99607.31
2022-12-20T05:11:38.754Z,99600.76
2022-12-20T05:14:10.766Z,99601.80
2022-12-20T05:17:01.750Z,99607.63
2022-12-20T05:19:33.512Z,99604.19
2022-12-20T05:22:19.100Z,99596.95
2022-12-20T05:25:16.593Z,99599.61
2022-12-20T05:27:48.471Z,99600.32
2022-12-20T05:30:20.411Z,99600.06
2022-12-20T05:32:52.094Z,99603.65
2022-12-20T05:35:23.881Z,99607.61
2022-12-20T05:37:55.637Z,99603.55
2022-12-20T05:40:27.137Z,99599.07
2022-12-20T05:42:58.944Z,99607.03
2022-12-20T05:45:31.458Z,99604.06
2022-12-20T05:48:03.353Z,99601.42
2022-12-20T05:50:35.371Z,99594.39
2022-12-20T05:53:11.589Z,99591.52
2022-12-20T05:55:47.001Z,99589.00
2022-12-20T05:58:18.953Z,99583.23
2022-12-20T06:00:50.487Z,99583.70
2022-12-20T06:03:22.319Z,99585.66
2022-12-20T06:05:54.230Z,99583.63
2022-12-20T06:08:25.994Z,99578.68
2022-12-20T06:10:57.771Z,99576.01
2022-12-20T06:13:29.381Z,99580.05
2022-12-20T06:16:01.530Z,99581.21
2022-12-20T06:18:33.115Z,99579.05
2022-12-20T06:21:05.021Z,99588.35
2022-12-20T06:23:37.042Z,99582.02
2022-12-20T06:26:09.687Z,99581.80
2022-12-20T06:28:42.974Z,99582.74
2022-12-20T06:31:14.682Z,99583.77
2022-12-20T06:33:47.306Z,99587.77
2022-12-20T06:36:18.966Z,99592.04
2022-12-20T06:38:50.732Z,99598.69
2022-12-20T06:41:22.243Z,99596.32
2022-12-20T06:43:53.758Z,99595.61
2022-12-20T06:46:25.254Z,99589.80
2022-12-20T06:48:58.608Z,99592.16
2022-12-20T06:51:30.167Z,99588.19
2022-12-20T06:54:01.738Z,99593.30
2022-12-20T06:56:39.227Z,99594.66
2022-12-20T06:59:12.924Z,99584.70
2022-12-20T07:01:44.849Z,99582.45
2022-12-20T07:04:16.626Z,99584.27
2022-12-20T07:06:48.303Z,99586.42
2022-12-20T07:09:20.737Z,99592.73
2022-12-20T07:24:39.920Z,99601.04
2022-12-20T07:27:20.006Z,99602.05
2022-12-20T07:29:51.947Z,99594.95
2022-12-20T07:32:23.951Z,99581.90
2022-12-20T07:34:58.228Z,99591.20
2022-12-20T07:37:31.192Z,99596.12
2022-12-20T07:40:03.096Z,99593.47
2022-12-20T07:42:39.064Z,99594.25
2022-12-20T07:45:13.703Z,99585.20
2022-12-20T07:47:45.397Z,99584.19
2022-12-20T07:50:17.546Z,99578.09
2022-12-20T07:52:51.021Z,99580.20
2022-12-20T07:55:23.785Z,99572.71
2022-12-20T07:58:19.047Z,99559.25
2022-12-20T08:00:53.372Z,99563.80
2022-12-20T08:03:29.592Z,99562.66
2022-12-20T08:06:05.035Z,99568.06
2022-12-20T08:08:39.537Z,99561.02
2022-12-20T08:11:12.614Z,99557.16
2022-12-20T08:13:46.755Z,99546.52
2022-12-20T08:16:20.401Z,99555.67
2022-12-20T08:18:52.403Z,99561.89
2022-12-20T08:21:24.137Z,99559.29
2022-12-20T08:23:56.744Z,99560.29
2022-12-20T08:26:28.411Z,99567.48
2022-12-20T08:29:00.218Z,99574.84
2022-12-20T08:31:32.134Z,99571.81
2022-12-20T08:34:03.831Z,99571.41
2022-12-20T08:36:35.440Z,99570.08
2022-12-20T08:39:07.854Z,99576.25
2022-12-20T08:41:39.812Z,99574.42
2022-12-20T08:44:11.682Z,99563.47
2022-12-20T08:46:43.421Z,99559.61
2022-12-20T08:49:15.311Z,99555.31
2022-12-20T08:51:47.004Z,99544.25
2022-12-20T08:54:18.808Z,99538.41
2022-12-20T08:56:50.551Z,99538.04
2022-12-20T08:59:22.421Z,99543.86
2022-12-20T09:01:54.767Z,99549.25
2022-12-20T09:04:26.600Z,99552.66
2022-12-20T09:06:58.354Z,99549.89
2022-12-20T09:09:31.595Z,99554.59
2022-12-20T09:12:03.307Z,99547.08
2022-12-20T09:14:35.001Z,99545.23
2022-12-20T09:17:07.131Z,99545.63
2022-12-20T09:19:39.099Z,99539.39
2022-12-20T09:22:10.775Z,99536.39
2022-12-20T09:24:42.619Z,99530.02
2022-12-20T09:27:14.213Z,99532.89
2022-12-20T09:38:48.724Z,99531.43
2022-12-20T09:41:30.525Z,99536.21
2022-12-20T09:44:08.141Z,99539.86
2022-12-20T09:46:41.920Z,99538.21
2022-12-20T09:49:18.892Z,99534.16
2022-12-20T09:52:08.162Z,99532.76
2022-12-20T09:55:02.639Z,99527.30
2022-12-20T09:58:05.759Z,99506.77
2022-12-20T10:00:50.152Z,99491.64
2022-12-20T10:03:32.525Z,99482.58
2022-12-20T10:06:12.388Z,99470.00
2022-12-20T10:08:56.972Z,99463.86
2022-12-20T10:11:54.991Z,99462.30
2022-12-20T10:15:02.027Z,99468.96
2022-12-20T10:17:45.387Z,99469.95
2022-12-20T10:20:32.315Z,99477.74
2022-12-20T10:23:10.621Z,99484.63
2022-12-20T10:25:43.173Z,99477.20
2022-12-20T10:28:19.504Z,99481.67
2022-12-20T10:30:51.396Z,99475.01
2022-12-20T10:33:28.535Z,99467.23
2022-12-20T10:36:21.340Z,99474.46
2022-12-20T10:38:55.650Z,99460.28
2022-12-20T10:41:28.933Z,99459.38
2022-12-20T10:44:03.577Z,99466.54
2022-12-20T10:46:42.560Z,99460.35
2022-12-20T10:49:41.012Z,99437.04
2022-12-20T10:52:17.543Z,99433.93
2022-12-20T10:54:49.809Z,99427.30
2022-12-20T10:57:27.960Z,99423.83
2022-12-20T11:00:02.344Z,99424.82
2022-12-20T11:03:26.851Z,99414.91
2022-12-20T11:06:20.345Z,99413.89
2022-12-20T11:08:57.029Z,99403.21
2022-12-20T11:11:32.747Z,99398.73
2022-12-20T11:14:21.428Z,99401.98
2022-12-20T11:16:55.110Z,99394.59
2022-12-20T11:19:41.701Z,99397.66
2022-12-20T11:22:23.723Z,99387.64
2022-12-20T11:25:07.858Z,99377.04
2022-12-20T11:27:49.539Z,99378.55
2022-12-20T11:30:24.392Z,99377.48
2022-12-20T11:33:21.503Z,99376.84
2022-12-20T11:36:02.691Z,99384.60
2022-12-20T11:38:45.800Z,99386.77
2022-12-20T11:41:31.560Z,99385.20
2022-12-20T11:44:25.283Z,99379.97
2022-12-20T11:47:30.346Z,99382.61
2022-12-20T11:50:18.919Z,99382.05
2022-12-20T11:52:56.568Z,99387.27
2022-12-20T11:55:33.692Z,99389.30
2022-12-20T11:58:20.707Z,99389.17
2022-12-20T12:00:58.858Z,99378.96
2022-12-20T12:03:37.472Z,99377.88
2022-12-20T12:06:13.586Z,99380.66
2022-12-20T12:08:51.803Z,99375.09
2022-12-20T12:14:32.594Z,99375.92
2022-12-20T12:17:14.442Z,99375.02
2022-12-20T12:19:50.965Z,99373.48
2022-12-20T12:22:31.672Z,99371.29
2022-12-20T12:25:11.353Z,99375.81
2022-12-20T12:27:43.414Z,99375.48
2022-12-20T12:30:19.394Z,99376.87
2022-12-20T12:32:57.089Z,99371.84
2022-12-20T12:36:00.350Z,99365.55
2022-12-20T12:39:02.813Z,99362.33
2022-12-20T12:42:10.881Z,99355.14
2022-12-20T12:44:50.826Z,99350.50
2022-12-20T12:47:31.810Z,99344.30
2022-12-20T12:50:06.594Z,99348.57
2022-12-20T12:52:47.932Z,99355.96
2022-12-20T12:55:50.510Z,99353.81
2022-12-20T12:58:38.153Z,99348.95
2022-12-20T13:01:14.311Z,99345.86
2022-12-20T13:04:08.581Z,99332.86
2022-12-20T13:06:58.162Z,99331.55
2022-12-20T13:09:44.516Z,99336.63
2022-12-20T13:12:58.782Z,99335.09
2022-12-20T13:16:20.147Z,99331.64
2022-12-20T13:19:14.647Z,99326.52
2022-12-20T13:21:48.844Z,99326.36
2022-12-20T13:24:54.994Z,99325.93
2022-12-20T13:27:40.434Z,99322.02
2022-12-20T13:30:29.514Z,99333.36
2022-12-20T13:33:24.153Z,99339.27
2022-12-20T13:36:29.075Z,99349.90
2022-12-20T13:39:02.858Z,99353.36
2022-12-20T13:41:46.332Z,99359.03
2022-12-20T13:44:46.642Z,99352.67
2022-12-20T13:47:47.624Z,99344.83
2022-12-20T13:50:38.657Z,99340.06
2022-12-20T13:53:20.663Z,99337.86
2022-12-20T13:55:52.666Z,99336.70
2022-12-20T13:58:29.664Z,99336.92
2022-12-20T14:01:07.997Z,99347.81
2022-12-20T14:03:49.112Z,99345.61
2022-12-20T14:06:26.994Z,99345.05
2022-12-20T14:08:59.165Z,99345.98
2022-12-20T14:11:31.286Z,99350.23
2022-12-20T14:14:05.756Z,99347.48
2022-12-20T14:16:39.417Z,99342.16
2022-12-20T14:19:17.327Z,99339.10
2022-12-20T14:21:52.875Z,99341.39
2022-12-20T14:24:25.404Z,99347.33
2022-12-20T14:26:57.637Z,99349.92
2022-12-20T14:29:33.662Z,99345.83
2022-12-20T14:32:07.230Z,99342.48
2022-12-20T14:34:41.900Z,99352.04
2022-12-20T14:37:42.524Z,99359.35
2022-12-20T14:40:22.178Z,99356.59
2022-12-20T14:42:54.033Z,99353.17
2022-12-20T14:45:28.618Z,99345.01
2022-12-20T14:48:04.606Z,99344.73
2022-12-20T14:50:37.974Z,99338.42
2022-12-20T14:53:20.188Z,99339.87
2022-12-20T14:55:52.821Z,99339.34
2022-12-20T14:58:30.223Z,99336.29
2022-12-20T15:01:04.939Z,99338.89
2022-12-20T15:03:38.139Z,99331.52
2022-12-20T15:06:38.919Z,99330.84
2022-12-20T15:09:10.723Z,99321.27
2022-12-20T15:11:45.835Z,99320.08
2022-12-20T15:14:28.604Z,99321.55
2022-12-20T15:17:00.348Z,99320.64
2022-12-20T15:19:36.226Z,99326.64
2022-12-20T15:22:16.893Z,99329.92
2022-12-20T15:24:48.721Z,99334.98
2022-12-20T15:27:20.470Z,99338.51
2022-12-20T15:29:53.343Z,99326.82
2022-12-20T15:32:30.908Z,99328.24
2022-12-20T15:35:04.041Z,99319.71
2022-12-20T15:37:35.845Z,99318.59
2022-12-20T15:40:14.468Z,99320.11
2022-12-20T15:42:46.368Z,99310.56
2022-12-20T15:45:18.684Z,99310.89
2022-12-20T15:47:50.472Z,99314.97
2022-12-20T15:50:23.294Z,99309.66
2022-12-20T15:52:55.591Z,99308.25
2022-12-20T15:55:27.487Z,99311.02
2022-12-20T15:57:59.284Z,99302.05
2022-12-20T16:00:31.091Z,99294.95
2022-12-20T16:03:03.683Z,99294.06
2022-12-20T16:05:36.821Z,99297.21
2022-12-20T16:08:09.360Z,99297.44
2022-12-20T16:10:41.290Z,99298.96
2022-12-20T16:13:21.024Z,99293.59
2022-12-20T16:15:53.957Z,99295.40
2022-12-20T16:18:30.066Z,99297.05
2022-12-20T16:21:07.023Z,99293.42
2022-12-20T16:23:37.197Z,99288.30
2022-12-20T16:26:12.371Z,99288.70
2022-12-20T16:28:44.949Z,99287.54
2022-12-20T16:31:24.726Z,99285.21
2022-12-20T16:33:57.020Z,99280.89
2022-12-20T16:36:29.767Z,99270.23
2022-12-20T16:39:02.102Z,99276.69
2022-12-20T16:41:36.007Z,99279.08
2022-12-20T16:44:13.153Z,99286.48
2022-12-20T16:46:45.668Z,99286.59
2022-12-20T16:49:20.437Z,99284.28
2022-12-20T16:51:52.819Z,99284.71
2022-12-20T16:54:25.291Z,99282.05
2022-12-20T16:56:57.537Z,99277.85
2022-12-20T16:59:29.357Z,99267.17
2022-12-20T17:02:02.432Z,99266.52
2022-12-20T17:04:33.316Z,99267.60
2022-12-20T17:07:05.124Z,99270.75
2022-12-20T17:09:37.154Z,99264.80
2022-12-20T17:12:16.441Z,99265.33
2022-12-20T17:14:48.929Z,99269.42
2022-12-20T17:17:20.781Z,99273.95
2022-12-20T17:19:52.478Z,99269.80
2022-12-20T17:25:23.807Z,99263.08
2022-12-20T17:27:57.324Z,99261.90
2022-12-20T17:30:29.161Z,99255.95
2022-12-20T17:33:01.135Z,99257.73
2022-12-20T17:35:34.487Z,99267.19
2022-12-20T17:38:07.640Z,99274.42
2022-12-20T17:40:39.482Z,99282.89
2022-12-20T17:43:14.561Z,99277.61
2022-12-20T17:45:47.770Z,99256.25
2022-12-20T17:48:19.524Z,99236.58
2022-12-20T17:50:51.327Z,99234.58
2022-12-20T17:53:23.046Z,99243.63
2022-12-20T17:55:55.507Z,99249.52
2022-12-20T17:58:27.414Z,99248.27
2022-12-20T18:01:00.283Z,99242.48
2022-12-20T18:04:02.066Z,99253.68
2022-12-20T18:06:24.843Z,99252.23
2022-12-20T18:08:58.109Z,99250.55
2022-12-20T18:11:30.663Z,99253.70
2022-12-20T18:14:03.571Z,99253.03
2022-12-20T18:16:36.067Z,99240.34
2022-12-20T18:19:09.955Z,99235.41
2022-12-20T18:21:41.917Z,99229.85
2022-12-20T18:24:15.969Z,99223.26
2022-12-20T18:26:47.937Z,99221.32
2022-12-20T18:29:19.788Z,99221.80
2022-12-20T18:31:51.668Z,99219.60
2022-12-20T18:34:24.364Z,99217.23
2022-12-20T18:36:56.178Z,99209.82
2022-12-20T18:39:28.035Z,99209.92
2022-12-20T18:41:59.870Z,99202.30
2022-12-20T18:44:39.823Z,99196.81
2022-12-20T18:47:14.947Z,99204.02
2022-12-20T18:49:46.878Z,99204.40
2022-12-20T18:52:18.869Z,99198.59
2022-12-20T18:54:50.628Z,99198.85
2022-12-20T18:57:22.417Z,99201.66
2022-12-20T18:59:55.071Z,99211.23
2022-12-20T19:02:27.115Z,99215.79
2022-12-20T19:04:59.130Z,99214.72
2022-12-20T19:07:30.987Z,99216.85
2022-12-20T19:10:02.829Z,99212.45
2022-12-20T19:12:35.556Z,99215.95
2022-12-20T19:15:09.340Z,99212.13
2022-12-20T19:17:41.850Z,99203.84
2022-12-20T19:20:14.263Z,99196.73
2022-12-20T19:22:46.120Z,99197.94
2022-12-20T19:25:18.919Z,99194.20
2022-12-20T19:27:50.629Z,99188.08
2022-12-20T19:30:22.680Z,99180.79
2022-12-20T19:32:55.189Z,99183.02
2022-12-20T19:35:53.987Z,99178.52
2022-12-20T19:38:20.079Z,99176.29
2022-12-20T19:40:55.321Z,99171.73
2022-12-20T19:43:27.122Z,99169.17
2022-12-20T19:46:00.464Z,99159.77
2022-12-20T19:48:34.652Z,99164.02
2022-12-20T19:51:10.034Z,99168.67
2022-12-20T19:53:43.591Z,99176.15
2022-12-20T19:56:17.961Z,99174.28
2022-12-20T19:58:50.229Z,99177.94
2022-12-20T20:01:25.856Z,99180.56
2022-12-20T20:04:02.241Z,99176.77
2022-12-20T20:06:34.317Z,99180.09
2022-12-20T20:09:06.214Z,99176.67
2022-12-20T20:11:38.043Z,99177.20
2022-12-20T20:14:10.345Z,99171.38
2022-12-20T20:16:42.351Z,99165.86
2022-12-20T20:19:14.277Z,99171.00
2022-12-20T20:21:46.318Z,99173.59
2022-12-20T20:24:18.741Z,99167.04
2022-12-20T20:26:50.601Z,99176.94
2022-12-20T20:29:22.418Z,99182.98
2022-12-20T20:31:55.307Z,99176.61
2022-12-20T20:34:27.089Z,99171.04
2022-12-20T20:36:58.802Z,99156.27
2022-12-20T20:39:30.487Z,99156.65
2022-12-20T20:42:02.267Z,99158.82
2022-12-20T20:44:34.047Z,99156.86
2022-12-20T20:47:06.565Z,99160.20
2022-12-20T20:49:38.317Z,99162.69
2022-12-20T20:52:11.230Z,99155.07
2022-12-20T20:54:43.294Z,99145.40
2022-12-20T20:57:15.231Z,99142.17
2022-12-20T20:59:46.965Z,99135.77
2022-12-20T21:02:20.939Z,99130.21
2022-12-20T21:05:47.150Z,99133.55
2022-12-20T21:07:46.205Z,99129.95
2022-12-20T21:10:18.394Z,99131.44
2022-12-20T21:12:50.451Z,99128.67
2022-12-20T21:15:24.098Z,99124.52
2022-12-20T21:17:57.064Z,99113.80
2022-12-20T21:20:28.813Z,99109.45
2022-12-20T21:23:01.483Z,99104.00
2022-12-20T21:25:33.451Z,99105.77
2022-12-20T21:28:05.543Z,99098.48
2022-12-20T21:30:37.341Z,99096.84
2022-12-20T21:33:09.580Z,99095.89
2022-12-20T21:35:41.405Z,99082.27
2022-12-20T21:38:13.151Z,99082.57
2022-12-20T21:40:44.957Z,99079.52
2022-12-20T21:43:16.929Z,99076.81
2022-12-20T21:45:52.640Z,99081.65
2022-12-20T21:48:25.871Z,99078.67
2022-12-20T21:51:06.762Z,99074.48
2022-12-20T21:53:42.312Z,99076.42
2022-12-20T21:56:15.776Z,99080.44
2022-12-20T21:58:49.479Z,99080.66
2022-12-20T22:01:23.383Z,99071.73
2022-12-20T22:03:56.671Z,99068.77
2022-12-20T22:06:29.296Z,99067.35
2022-12-20T22:09:02.768Z,99061.55
2022-12-20T22:11:35.994Z,99052.98
2022-12-20T22:14:08.681Z,99051.60
2022-12-20T22:16:41.417Z,99048.02
2022-12-20T22:19:15.510Z,99048.88
2022-12-20T22:21:49.788Z,99041.52
2022-12-20T22:24:25.849Z,99046.66
2022-12-20T22:26:57.881Z,99041.14
2022-12-20T22:29:29.629Z,99037.09
2022-12-20T22:32:01.445Z,99037.11
2022-12-20T22:34:33.275Z,99034.11
2022-12-20T22:37:05.160Z,99029.58
2022-12-20T22:39:37.216Z,99026.52
2022-12-20T22:42:11.303Z,99020.16
2022-12-20T22:44:43.182Z,99019.48
2022-12-20T22:47:15.251Z,99010.10
2022-12-20T22:49:46.975Z,99005.64
2022-12-20T22:52:19.146Z,99005.10
2022-12-20T22:54:51.000Z,98999.60
2022-12-20T22:57:22.738Z,98994.80
2022-12-20T23:00:14.624Z,98987.05
2022-12-20T23:02:46.682Z,98993.10
2022-12-20T23:05:18.704Z,98995.79
2022-12-20T23:07:50.603Z,98999.62
2022-12-20T23:10:40.206Z,98993.12
2022-12-20T23:13:32.229Z,98990.98
2022-12-20T23:16:04.136Z,98976.92
2022-12-20T23:18:36.021Z,98978.34
2022-12-20T23:21:25.791Z,98967.67
2022-12-20T23:23:57.595Z,98968.52
2022-12-20T23:26:29.340Z,98973.49
2022-12-20T23:29:01.276Z,98972.05
2022-12-20T23:31:33.341Z,98959.33
2022-12-20T23:34:06.963Z,98952.11
2022-12-20T23:36:38.409Z,98948.11
2022-12-20T23:39:11.876Z,98929.73
2022-12-20T23:41:43.691Z,98932.59
2022-12-20T23:44:15.568Z,98940.95
2022-12-20T23:46:47.343Z,98950.61
2022-12-20T23:49:19.456Z,98960.77
2022-12-20T23:51:51.320Z,98961.31
2022-12-20T23:54:23.539Z,98968.96
2022-12-20T23:56:56.066Z,98961.52
2022-12-20T23:59:28.064Z,98956.44
